sensor_id;sensor_type;location;lat;lon;timestamp;P1;durP1;ratioP1;P2;durP2;ratioP2
21334;SDS011;10826;52.536;13.432;2022-12-10T00:01:18;14.73;;;10.17;;
21334;SDS011;10826;52.536;13.432;2022-12-10T00:03:45;15.63;;;10.43;;
21334;SDS011;10826;52.536;13.432;2022-12-10T00:06:12;17.93;;;11.00;;
21334;SDS011;10826;52.536;13.432;2022-12-10T00:08:43;15.30;;;10.13;;
21334;SDS011;10826;52.536;13.432;2022-12-10T00:11:11;18.87;;;11.10;;
21334;SDS011;10826;52.536;13.432;2022-12-10T00:13:40;19.20;;;10.73;;
21334;SDS011;10826;52.536;13.432;2022-12-10T00:16:10;18.43;;;11.17;;
21334;SDS011;10826;52.536;13.432;2022-12-10T00:18:38;20.57;;;11.53;;
21334;SDS011;10826;52.536;13.432;2022-12-10T00:21:06;16.47;;;10.43;;
21334;SDS011;10826;52.536;13.432;2022-12-10T00:23:35;21.67;;;11.13;;
21334;SDS011;10826;52.536;13.432;2022-12-10T00:26:35;18.47;;;10.87;;
21334;SDS011;10826;52.536;13.432;2022-12-10T00:29:00;18.07;;;10.67;;
21334;SDS011;10826;52.536;13.432;2022-12-10T00:31:29;17.53;;;10.67;;
21334;SDS011;10826;52.536;13.432;2022-12-10T00:33:58;17.07;;;10.03;;
21334;SDS011;10826;52.536;13.432;2022-12-10T00:36:32;20.23;;;10.73;;
21334;SDS011;10826;52.536;13.432;2022-12-10T00:39:04;20.37;;;11.00;;
21334;SDS011;10826;52.536;13.432;2022-12-10T00:41:32;18.97;;;10.43;;
21334;SDS011;10826;52.536;13.432;2022-12-10T00:43:58;21.27;;;11.87;;
21334;SDS011;10826;52.536;13.432;2022-12-10T00:46:26;19.40;;;11.10;;
21334;SDS011;10826;52.536;13.432;2022-12-10T00:48:55;20.00;;;10.40;;
21334;SDS011;10826;52.536;13.432;2022-12-10T00:51:24;16.50;;;10.17;;
21334;SDS011;10826;52.536;13.432;2022-12-10T00:53:54;19.37;;;10.30;;
21334;SDS011;10826;52.536;13.432;2022-12-10T00:56:24;17.50;;;10.10;;
21334;SDS011;10826;52.536;13.432;2022-12-10T00:58:57;16.27;;;10.43;;
21334;SDS011;10826;52.536;13.432;2022-12-10T01:01:31;17.67;;;10.97;;
21334;SDS011;10826;52.536;13.432;2022-12-10T01:04:04;18.03;;;11.17;;
21334;SDS011;10826;52.536;13.432;2022-12-10T01:06:45;17.30;;;10.70;;
21334;SDS011;10826;52.536;13.432;2022-12-10T01:09:17;19.27;;;10.57;;
21334;SDS011;10826;52.536;13.432;2022-12-10T01:11:52;20.73;;;11.43;;
21334;SDS011;10826;52.536;13.432;2022-12-10T01:14:27;15.93;;;9.87;;
21334;SDS011;10826;52.536;13.432;2022-12-10T01:16:57;18.93;;;11.47;;
21334;SDS011;10826;52.536;13.432;2022-12-10T01:19:30;17.53;;;9.57;;
21334;SDS011;10826;52.536;13.432;2022-12-10T01:21:58;21.33;;;11.67;;
21334;SDS011;10826;52.536;13.432;2022-12-10T01:24:24;22.93;;;11.83;;
21334;SDS011;10826;52.536;13.432;2022-12-10T01:26:52;19.30;;;10.80;;
21334;SDS011;10826;52.536;13.432;2022-12-10T01:29:20;18.23;;;10.43;;
21334;SDS011;10826;52.536;13.432;2022-12-10T01:31:46;18.17;;;10.77;;
21334;SDS011;10826;52.536;13.432;2022-12-10T01:34:18;15.83;;;10.27;;
21334;SDS011;10826;52.536;13.432;2022-12-10T01:36:45;18.10;;;10.70;;
21334;SDS011;10826;52.536;13.432;2022-12-10T01:41:49;20.47;;;11.40;;
21334;SDS011;10826;52.536;13.432;2022-12-10T01:46:54;21.13;;;10.67;;
21334;SDS011;10826;52.536;13.432;2022-12-10T01:49:26;17.97;;;10.47;;
21334;SDS011;10826;52.536;13.432;2022-12-10T01:52:01;20.57;;;10.70;;
21334;SDS011;10826;52.536;13.432;2022-12-10T01:54:42;18.33;;;10.23;;
21334;SDS011;10826;52.536;13.432;2022-12-10T01:57:15;19.67;;;11.00;;
21334;SDS011;10826;52.536;13.432;2022-12-10T01:59:52;20.37;;;10.77;;
21334;SDS011;10826;52.536;13.432;2022-12-10T02:02:29;20.50;;;11.30;;
21334;SDS011;10826;52.536;13.432;2022-12-10T02:05:49;17.67;;;11.20;;
21334;SDS011;10826;52.536;13.432;2022-12-10T02:08:19;18.80;;;10.77;;
21334;SDS011;10826;52.536;13.432;2022-12-10T02:11:16;17.60;;;10.43;;
21334;SDS011;10826;52.536;13.432;2022-12-10T02:14:03;17.20;;;10.17;;
21334;SDS011;10826;52.536;13.432;2022-12-10T02:16:40;19.03;;;11.03;;
21334;SDS011;10826;52.536;13.432;2022-12-10T02:22:28;22.53;;;11.17;;
21334;SDS011;10826;52.536;13.432;2022-12-10T02:25:02;21.97;;;11.60;;
21334;SDS011;10826;52.536;13.432;2022-12-10T02:30:49;22.20;;;11.90;;
21334;SDS011;10826;52.536;13.432;2022-12-10T02:33:17;22.53;;;12.57;;
21334;SDS011;10826;52.536;13.432;2022-12-10T02:35:48;23.17;;;12.03;;
21334;SDS011;10826;52.536;13.432;2022-12-10T02:38:23;27.47;;;12.70;;
21334;SDS011;10826;52.536;13.432;2022-12-10T02:41:08;20.27;;;11.23;;
21334;SDS011;10826;52.536;13.432;2022-12-10T02:43:52;20.37;;;11.73;;
21334;SDS011;10826;52.536;13.432;2022-12-10T02:46:22;22.87;;;11.80;;
21334;SDS011;10826;52.536;13.432;2022-12-10T02:48:53;22.43;;;12.23;;
21334;SDS011;10826;52.536;13.432;2022-12-10T02:51:20;23.07;;;12.73;;
21334;SDS011;10826;52.536;13.432;2022-12-10T02:53:46;21.87;;;12.60;;
21334;SDS011;10826;52.536;13.432;2022-12-10T02:56:27;23.37;;;13.47;;
21334;SDS011;10826;52.536;13.432;2022-12-10T02:59:07;22.70;;;11.67;;
21334;SDS011;10826;52.536;13.432;2022-12-10T03:07:08;19.07;;;10.57;;
21334;SDS011;10826;52.536;13.432;2022-12-10T03:09:53;20.47;;;11.30;;
21334;SDS011;10826;52.536;13.432;2022-12-10T03:12:32;19.57;;;11.27;;
21334;SDS011;10826;52.536;13.432;2022-12-10T03:15:08;22.47;;;11.40;;
21334;SDS011;10826;52.536;13.432;2022-12-10T03:17:36;20.90;;;12.00;;
21334;SDS011;10826;52.536;13.432;2022-12-10T03:20:08;17.43;;;11.93;;
21334;SDS011;10826;52.536;13.432;2022-12-10T03:22:39;19.90;;;11.07;;
21334;SDS011;10826;52.536;13.432;2022-12-10T03:25:12;21.17;;;11.43;;
21334;SDS011;10826;52.536;13.432;2022-12-10T03:27:44;19.70;;;11.50;;
21334;SDS011;10826;52.536;13.432;2022-12-10T03:30:14;21.17;;;12.00;;
21334;SDS011;10826;52.536;13.432;2022-12-10T03:32:41;17.43;;;10.83;;
21334;SDS011;10826;52.536;13.432;2022-12-10T03:35:09;22.40;;;11.47;;
21334;SDS011;10826;52.536;13.432;2022-12-10T03:37:37;20.23;;;10.90;;
21334;SDS011;10826;52.536;13.432;2022-12-10T03:40:04;18.37;;;10.90;;
21334;SDS011;10826;52.536;13.432;2022-12-10T03:42:34;22.47;;;11.53;;
21334;SDS011;10826;52.536;13.432;2022-12-10T03:45:01;18.10;;;11.50;;
21334;SDS011;10826;52.536;13.432;2022-12-10T03:47:28;16.83;;;10.97;;
21334;SDS011;10826;52.536;13.432;2022-12-10T03:49:54;19.00;;;11.17;;
21334;SDS011;10826;52.536;13.432;2022-12-10T03:52:21;20.03;;;11.90;;
21334;SDS011;10826;52.536;13.432;2022-12-10T03:54:47;21.30;;;11.60;;
21334;SDS011;10826;52.536;13.432;2022-12-10T03:57:13;18.47;;;11.73;;
21334;SDS011;10826;52.536;13.432;2022-12-10T03:59:39;19.07;;;11.17;;
21334;SDS011;10826;52.536;13.432;2022-12-10T04:02:05;17.77;;;11.77;;
21334;SDS011;10826;52.536;13.432;2022-12-10T04:04:35;22.83;;;12.17;;
21334;SDS011;10826;52.536;13.432;2022-12-10T04:07:01;21.00;;;11.63;;
21334;SDS011;10826;52.536;13.432;2022-12-10T04:09:28;22.17;;;11.80;;
21334;SDS011;10826;52.536;13.432;2022-12-10T04:12:01;21.37;;;11.13;;
21334;SDS011;10826;52.536;13.432;2022-12-10T04:14:28;20.13;;;11.60;;
21334;SDS011;10826;52.536;13.432;2022-12-10T04:17:12;20.17;;;11.33;;
21334;SDS011;10826;52.536;13.432;2022-12-10T04:19:38;17.63;;;11.87;;
21334;SDS011;10826;52.536;13.432;2022-12-10T04:22:04;21.97;;;11.90;;
21334;SDS011;10826;52.536;13.432;2022-12-10T04:24:49;23.90;;;12.20;;
21334;SDS011;10826;52.536;13.432;2022-12-10T04:27:36;21.93;;;11.37;;
21334;SDS011;10826;52.536;13.432;2022-12-10T04:30:08;18.87;;;10.93;;
21334;SDS011;10826;52.536;13.432;2022-12-10T04:32:36;17.10;;;11.07;;
21334;SDS011;10826;52.536;13.432;2022-12-10T04:35:03;22.20;;;10.70;;
21334;SDS011;10826;52.536;13.432;2022-12-10T04:37:30;22.53;;;12.27;;
21334;SDS011;10826;52.536;13.432;2022-12-10T04:40:00;17.53;;;10.50;;
21334;SDS011;10826;52.536;13.432;2022-12-10T04:42:29;21.30;;;11.60;;
21334;SDS011;10826;52.536;13.432;2022-12-10T04:44:56;20.23;;;11.23;;
21334;SDS011;10826;52.536;13.432;2022-12-10T04:47:22;17.93;;;10.90;;
21334;SDS011;10826;52.536;13.432;2022-12-10T04:49:48;19.80;;;11.30;;
21334;SDS011;10826;52.536;13.432;2022-12-10T04:52:14;16.50;;;11.10;;
21334;SDS011;10826;52.536;13.432;2022-12-10T04:54:42;19.33;;;12.17;;
21334;SDS011;10826;52.536;13.432;2022-12-10T04:57:09;22.13;;;11.57;;
21334;SDS011;10826;52.536;13.432;2022-12-10T04:59:37;17.87;;;10.63;;
21334;SDS011;10826;52.536;13.432;2022-12-10T05:02:03;19.37;;;11.90;;
21334;SDS011;10826;52.536;13.432;2022-12-10T05:04:30;16.87;;;11.47;;
21334;SDS011;10826;52.536;13.432;2022-12-10T05:06:56;19.17;;;11.30;;
21334;SDS011;10826;52.536;13.432;2022-12-10T05:09:22;19.50;;;10.43;;
21334;SDS011;10826;52.536;13.432;2022-12-10T05:11:47;17.17;;;10.90;;
21334;SDS011;10826;52.536;13.432;2022-12-10T05:14:14;16.07;;;10.20;;
21334;SDS011;10826;52.536;13.432;2022-12-10T05:16:40;17.93;;;10.87;;
21334;SDS011;10826;52.536;13.432;2022-12-10T05:19:07;21.53;;;10.97;;
21334;SDS011;10826;52.536;13.432;2022-12-10T05:21:34;18.80;;;11.37;;
21334;SDS011;10826;52.536;13.432;2022-12-10T05:24:20;16.13;;;11.13;;
21334;SDS011;10826;52.536;13.432;2022-12-10T05:26:46;13.90;;;9.80;;
21334;SDS011;10826;52.536;13.432;2022-12-10T05:29:16;18.03;;;10.80;;
21334;SDS011;10826;52.536;13.432;2022-12-10T05:31:44;19.47;;;12.13;;
21334;SDS011;10826;52.536;13.432;2022-12-10T05:34:15;16.57;;;11.03;;
21334;SDS011;10826;52.536;13.432;2022-12-10T05:36:42;17.60;;;10.50;;
21334;SDS011;10826;52.536;13.432;2022-12-10T05:39:09;19.13;;;11.13;;
21334;SDS011;10826;52.536;13.432;2022-12-10T05:41:39;16.10;;;10.83;;
21334;SDS011;10826;52.536;13.432;2022-12-10T05:44:05;16.80;;;10.37;;
21334;SDS011;10826;52.536;13.432;2022-12-10T05:46:33;18.57;;;10.93;;
21334;SDS011;10826;52.536;13.432;2022-12-10T05:49:00;16.13;;;10.73;;
21334;SDS011;10826;52.536;13.432;2022-12-10T05:51:28;16.83;;;10.07;;
21334;SDS011;10826;52.536;13.432;2022-12-10T05:53:58;17.30;;;9.50;;
21334;SDS011;10826;52.536;13.432;2022-12-10T05:56:26;17.50;;;11.23;;
21334;SDS011;10826;52.536;13.432;2022-12-10T05:58:53;15.63;;;9.83;;
21334;SDS011;10826;52.536;13.432;2022-12-10T06:01:27;17.40;;;11.07;;
21334;SDS011;10826;52.536;13.432;2022-12-10T06:03:59;16.77;;;10.63;;
21334;SDS011;10826;52.536;13.432;2022-12-10T06:06:35;14.83;;;10.70;;
21334;SDS011;10826;52.536;13.432;2022-12-10T06:09:03;15.00;;;10.30;;
21334;SDS011;10826;52.536;13.432;2022-12-10T06:11:31;14.90;;;10.10;;
21334;SDS011;10826;52.536;13.432;2022-12-10T06:13:57;16.50;;;10.77;;
21334;SDS011;10826;52.536;13.432;2022-12-10T06:16:24;12.80;;;9.33;;
21334;SDS011;10826;52.536;13.432;2022-12-10T06:18:52;12.07;;;9.20;;
21334;SDS011;10826;52.536;13.432;2022-12-10T06:21:21;12.40;;;9.90;;
21334;SDS011;10826;52.536;13.432;2022-12-10T06:23:51;12.37;;;9.47;;
21334;SDS011;10826;52.536;13.432;2022-12-10T06:26:25;15.07;;;9.03;;
21334;SDS011;10826;52.536;13.432;2022-12-10T06:28:51;11.83;;;8.87;;
21334;SDS011;10826;52.536;13.432;2022-12-10T06:31:18;12.30;;;9.20;;
21334;SDS011;10826;52.536;13.432;2022-12-10T06:33:45;12.33;;;9.07;;
21334;SDS011;10826;52.536;13.432;2022-12-10T06:36:12;12.07;;;8.97;;
21334;SDS011;10826;52.536;13.432;2022-12-10T06:38:40;14.60;;;10.47;;
21334;SDS011;10826;52.536;13.432;2022-12-10T06:41:07;11.10;;;8.37;;
21334;SDS011;10826;52.536;13.432;2022-12-10T06:43:35;9.57;;;8.20;;
21334;SDS011;10826;52.536;13.432;2022-12-10T06:46:06;12.30;;;8.93;;
21334;SDS011;10826;52.536;13.432;2022-12-10T06:48:34;11.80;;;9.10;;
21334;SDS011;10826;52.536;13.432;2022-12-10T06:51:01;9.83;;;8.57;;
21334;SDS011;10826;52.536;13.432;2022-12-10T06:53:28;11.23;;;8.40;;
21334;SDS011;10826;52.536;13.432;2022-12-10T06:55:54;13.27;;;8.50;;
21334;SDS011;10826;52.536;13.432;2022-12-10T06:58:23;12.53;;;8.53;;
21334;SDS011;10826;52.536;13.432;2022-12-10T07:00:51;13.23;;;8.63;;
21334;SDS011;10826;52.536;13.432;2022-12-10T07:03:16;13.20;;;8.93;;
21334;SDS011;10826;52.536;13.432;2022-12-10T07:05:42;11.03;;;8.40;;
21334;SDS011;10826;52.536;13.432;2022-12-10T07:08:08;12.10;;;8.83;;
21334;SDS011;10826;52.536;13.432;2022-12-10T07:10:35;15.93;;;10.27;;
21334;SDS011;10826;52.536;13.432;2022-12-10T07:13:02;10.60;;;8.20;;
21334;SDS011;10826;52.536;13.432;2022-12-10T07:15:28;12.20;;;9.10;;
21334;SDS011;10826;52.536;13.432;2022-12-10T07:17:56;11.30;;;8.67;;
21334;SDS011;10826;52.536;13.432;2022-12-10T07:20:21;10.80;;;8.20;;
21334;SDS011;10826;52.536;13.432;2022-12-10T07:22:47;10.23;;;8.73;;
21334;SDS011;10826;52.536;13.432;2022-12-10T07:25:13;10.23;;;8.67;;
21334;SDS011;10826;52.536;13.432;2022-12-10T07:27:39;12.43;;;9.13;;
21334;SDS011;10826;52.536;13.432;2022-12-10T07:30:05;10.60;;;8.53;;
21334;SDS011;10826;52.536;13.432;2022-12-10T07:32:31;11.00;;;8.17;;
21334;SDS011;10826;52.536;13.432;2022-12-10T07:34:57;10.47;;;8.33;;
21334;SDS011;10826;52.536;13.432;2022-12-10T07:37:25;12.87;;;8.63;;
21334;SDS011;10826;52.536;13.432;2022-12-10T07:39:51;12.90;;;9.07;;
21334;SDS011;10826;52.536;13.432;2022-12-10T07:42:17;9.93;;;7.90;;
21334;SDS011;10826;52.536;13.432;2022-12-10T07:44:43;12.40;;;9.23;;
21334;SDS011;10826;52.536;13.432;2022-12-10T07:47:09;11.53;;;8.63;;
21334;SDS011;10826;52.536;13.432;2022-12-10T07:49:35;11.00;;;8.33;;
21334;SDS011;10826;52.536;13.432;2022-12-10T07:52:01;11.13;;;8.60;;
21334;SDS011;10826;52.536;13.432;2022-12-10T07:54:27;9.77;;;8.53;;
21334;SDS011;10826;52.536;13.432;2022-12-10T07:56:53;11.53;;;8.37;;
21334;SDS011;10826;52.536;13.432;2022-12-10T07:59:19;10.10;;;8.57;;
21334;SDS011;10826;52.536;13.432;2022-12-10T08:01:44;11.07;;;8.00;;
21334;SDS011;10826;52.536;13.432;2022-12-10T08:04:10;11.77;;;8.47;;
21334;SDS011;10826;52.536;13.432;2022-12-10T08:06:36;11.27;;;8.43;;
21334;SDS011;10826;52.536;13.432;2022-12-10T08:09:02;12.57;;;9.30;;
21334;SDS011;10826;52.536;13.432;2022-12-10T08:11:28;10.47;;;8.23;;
21334;SDS011;10826;52.536;13.432;2022-12-10T08:13:54;10.07;;;8.33;;
21334;SDS011;10826;52.536;13.432;2022-12-10T08:16:21;10.60;;;8.60;;
21334;SDS011;10826;52.536;13.432;2022-12-10T08:18:51;10.93;;;8.20;;
21334;SDS011;10826;52.536;13.432;2022-12-10T08:21:20;10.93;;;8.53;;
21334;SDS011;10826;52.536;13.432;2022-12-10T08:23:49;11.13;;;7.87;;
21334;SDS011;10826;52.536;13.432;2022-12-10T08:26:16;11.30;;;7.90;;
21334;SDS011;10826;52.536;13.432;2022-12-10T08:28:45;12.63;;;8.40;;
21334;SDS011;10826;52.536;13.432;2022-12-10T08:31:12;11.67;;;9.00;;
21334;SDS011;10826;52.536;13.432;2022-12-10T08:33:40;9.83;;;8.10;;
21334;SDS011;10826;52.536;13.432;2022-12-10T08:36:06;10.47;;;8.23;;
21334;SDS011;10826;52.536;13.432;2022-12-10T08:38:35;8.90;;;7.90;;
21334;SDS011;10826;52.536;13.432;2022-12-10T08:41:08;8.23;;;7.43;;
21334;SDS011;10826;52.536;13.432;2022-12-10T08:43:36;11.33;;;9.10;;
21334;SDS011;10826;52.536;13.432;2022-12-10T08:46:02;9.73;;;8.50;;
21334;SDS011;10826;52.536;13.432;2022-12-10T08:48:28;11.67;;;8.53;;
21334;SDS011;10826;52.536;13.432;2022-12-10T08:50:57;10.13;;;8.17;;
21334;SDS011;10826;52.536;13.432;2022-12-10T08:53:23;9.83;;;8.47;;
21334;SDS011;10826;52.536;13.432;2022-12-10T08:55:50;11.73;;;8.53;;
21334;SDS011;10826;52.536;13.432;2022-12-10T08:58:17;13.40;;;9.13;;
21334;SDS011;10826;52.536;13.432;2022-12-10T09:00:44;11.83;;;9.03;;
21334;SDS011;10826;52.536;13.432;2022-12-10T09:03:10;11.07;;;9.30;;
21334;SDS011;10826;52.536;13.432;2022-12-10T09:05:36;10.37;;;9.27;;
21334;SDS011;10826;52.536;13.432;2022-12-10T09:08:02;11.27;;;8.83;;
21334;SDS011;10826;52.536;13.432;2022-12-10T09:10:28;10.00;;;8.60;;
21334;SDS011;10826;52.536;13.432;2022-12-10T09:12:54;10.03;;;8.97;;
21334;SDS011;10826;52.536;13.432;2022-12-10T09:15:20;13.10;;;9.50;;
21334;SDS011;10826;52.536;13.432;2022-12-10T09:17:46;10.03;;;9.07;;
21334;SDS011;10826;52.536;13.432;2022-12-10T09:20:11;11.50;;;9.40;;
21334;SDS011;10826;52.536;13.432;2022-12-10T09:22:38;11.63;;;8.93;;
21334;SDS011;10826;52.536;13.432;2022-12-10T09:25:04;15.30;;;9.00;;
21334;SDS011;10826;52.536;13.432;2022-12-10T09:27:34;12.03;;;9.33;;
21334;SDS011;10826;52.536;13.432;2022-12-10T09:29:59;12.50;;;9.50;;
21334;SDS011;10826;52.536;13.432;2022-12-10T09:32:25;11.83;;;9.73;;
21334;SDS011;10826;52.536;13.432;2022-12-10T09:34:52;11.73;;;9.50;;
21334;SDS011;10826;52.536;13.432;2022-12-10T09:37:19;9.93;;;8.93;;
21334;SDS011;10826;52.536;13.432;2022-12-10T09:39:44;11.63;;;9.63;;
21334;SDS011;10826;52.536;13.432;2022-12-10T09:45:04;9.40;;;8.23;;
21334;SDS011;10826;52.536;13.432;2022-12-10T09:47:52;10.93;;;8.90;;
21334;SDS011;10826;52.536;13.432;2022-12-10T09:51:12;10.30;;;8.97;;
21334;SDS011;10826;52.536;13.432;2022-12-10T09:53:47;13.50;;;9.63;;
21334;SDS011;10826;52.536;13.432;2022-12-10T09:56:24;12.30;;;9.53;;
21334;SDS011;10826;52.536;13.432;2022-12-10T09:58:57;10.80;;;9.37;;
21334;SDS011;10826;52.536;13.432;2022-12-10T10:01:31;14.00;;;10.57;;
21334;SDS011;10826;52.536;13.432;2022-12-10T10:04:00;10.97;;;8.70;;
21334;SDS011;10826;52.536;13.432;2022-12-10T10:06:28;12.47;;;9.53;;
21334;SDS011;10826;52.536;13.432;2022-12-10T10:08:56;11.73;;;9.33;;
21334;SDS011;10826;52.536;13.432;2022-12-10T10:11:30;12.03;;;9.10;;
21334;SDS011;10826;52.536;13.432;2022-12-10T10:14:43;11.10;;;9.23;;
21334;SDS011;10826;52.536;13.432;2022-12-10T10:16:59;13.47;;;9.50;;
21334;SDS011;10826;52.536;13.432;2022-12-10T10:19:35;11.53;;;9.03;;
21334;SDS011;10826;52.536;13.432;2022-12-10T10:22:04;11.80;;;9.73;;
21334;SDS011;10826;52.536;13.432;2022-12-10T10:24:37;11.03;;;9.77;;
21334;SDS011;10826;52.536;13.432;2022-12-10T10:27:20;14.53;;;10.73;;
21334;SDS011;10826;52.536;13.432;2022-12-10T10:29:52;10.83;;;8.87;;
21334;SDS011;10826;52.536;13.432;2022-12-10T10:32:25;13.57;;;10.30;;
21334;SDS011;10826;52.536;13.432;2022-12-10T10:35:00;10.90;;;9.23;;
21334;SDS011;10826;52.536;13.432;2022-12-10T10:37:30;13.63;;;9.77;;
21334;SDS011;10826;52.536;13.432;2022-12-10T10:40:28;11.47;;;9.43;;
21334;SDS011;10826;52.536;13.432;2022-12-10T10:46:12;12.57;;;10.30;;
21334;SDS011;10826;52.536;13.432;2022-12-10T10:48:48;10.83;;;9.03;;
21334;SDS011;10826;52.536;13.432;2022-12-10T10:51:17;11.87;;;9.87;;
21334;SDS011;10826;52.536;13.432;2022-12-10T10:53:54;10.60;;;8.97;;
21334;SDS011;10826;52.536;13.432;2022-12-10T10:56:21;14.87;;;10.27;;
21334;SDS011;10826;52.536;13.432;2022-12-10T10:58:54;12.50;;;9.53;;
21334;SDS011;10826;52.536;13.432;2022-12-10T11:01:26;13.93;;;10.27;;
21334;SDS011;10826;52.536;13.432;2022-12-10T11:04:10;10.83;;;9.00;;
21334;SDS011;10826;52.536;13.432;2022-12-10T11:06:39;10.83;;;9.23;;
21334;SDS011;10826;52.536;13.432;2022-12-10T11:09:07;10.43;;;9.27;;
21334;SDS011;10826;52.536;13.432;2022-12-10T11:11:40;13.97;;;9.93;;
21334;SDS011;10826;52.536;13.432;2022-12-10T11:22:41;12.93;;;9.60;;
21334;SDS011;10826;52.536;13.432;2022-12-10T11:25:55;11.30;;;9.53;;
21334;SDS011;10826;52.536;13.432;2022-12-10T11:28:39;12.40;;;9.50;;
21334;SDS011;10826;52.536;13.432;2022-12-10T11:37:51;13.73;;;9.40;;
21334;SDS011;10826;52.536;13.432;2022-12-10T11:58:38;10.67;;;9.00;;
21334;SDS011;10826;52.536;13.432;2022-12-10T12:01:17;9.97;;;8.93;;
21334;SDS011;10826;52.536;13.432;2022-12-10T12:03:58;11.60;;;9.43;;
21334;SDS011;10826;52.536;13.432;2022-12-10T12:15:28;13.33;;;9.57;;
21334;SDS011;10826;52.536;13.432;2022-12-10T12:20:59;12.10;;;9.67;;
21334;SDS011;10826;52.536;13.432;2022-12-10T12:23:32;10.73;;;8.90;;
21334;SDS011;10826;52.536;13.432;2022-12-10T12:26:35;10.43;;;9.33;;
21334;SDS011;10826;52.536;13.432;2022-12-10T12:29:27;17.43;;;10.00;;
21334;SDS011;10826;52.536;13.432;2022-12-10T12:32:20;14.03;;;10.03;;
21334;SDS011;10826;52.536;13.432;2022-12-10T12:34:53;14.87;;;10.93;;
21334;SDS011;10826;52.536;13.432;2022-12-10T12:37:40;13.90;;;10.90;;
21334;SDS011;10826;52.536;13.432;2022-12-10T12:40:21;15.70;;;10.83;;
21334;SDS011;10826;52.536;13.432;2022-12-10T12:42:58;11.50;;;9.47;;
21334;SDS011;10826;52.536;13.432;2022-12-10T12:50:59;14.87;;;10.20;;
21334;SDS011;10826;52.536;13.432;2022-12-10T12:53:35;16.87;;;10.63;;
21334;SDS011;10826;52.536;13.432;2022-12-10T12:56:03;16.37;;;11.60;;
21334;SDS011;10826;52.536;13.432;2022-12-10T12:59:08;13.83;;;10.57;;
21334;SDS011;10826;52.536;13.432;2022-12-10T13:01:53;14.10;;;10.93;;
21334;SDS011;10826;52.536;13.432;2022-12-10T13:04:25;13.13;;;10.47;;
21334;SDS011;10826;52.536;13.432;2022-12-10T13:09:43;11.77;;;9.50;;
21334;SDS011;10826;52.536;13.432;2022-12-10T13:18:18;15.97;;;10.60;;
21334;SDS011;10826;52.536;13.432;2022-12-10T13:24:10;12.80;;;10.07;;
21334;SDS011;10826;52.536;13.432;2022-12-10T13:26:40;15.23;;;10.67;;
21334;SDS011;10826;52.536;13.432;2022-12-10T13:32:45;17.83;;;11.37;;
21334;SDS011;10826;52.536;13.432;2022-12-10T13:35:31;16.37;;;10.90;;
21334;SDS011;10826;52.536;13.432;2022-12-10T13:38:20;16.10;;;10.83;;
21334;SDS011;10826;52.536;13.432;2022-12-10T13:40:59;19.10;;;11.60;;
21334;SDS011;10826;52.536;13.432;2022-12-10T13:43:59;19.17;;;11.77;;
21334;SDS011;10826;52.536;13.432;2022-12-10T13:46:51;20.00;;;12.63;;
21334;SDS011;10826;52.536;13.432;2022-12-10T13:49:23;20.80;;;12.50;;
21334;SDS011;10826;52.536;13.432;2022-12-10T13:51:54;17.83;;;11.77;;
21334;SDS011;10826;52.536;13.432;2022-12-10T13:57:17;17.97;;;12.07;;
21334;SDS011;10826;52.536;13.432;2022-12-10T14:00:10;16.77;;;11.37;;
21334;SDS011;10826;52.536;13.432;2022-12-10T14:08:23;20.13;;;12.27;;
21334;SDS011;10826;52.536;13.432;2022-12-10T14:10:56;17.73;;;11.57;;
21334;SDS011;10826;52.536;13.432;2022-12-10T14:13:30;17.23;;;11.97;;
21334;SDS011;10826;52.536;13.432;2022-12-10T14:16:06;19.47;;;11.90;;
21334;SDS011;10826;52.536;13.432;2022-12-10T14:18:43;19.60;;;11.83;;
21334;SDS011;10826;52.536;13.432;2022-12-10T14:21:27;21.53;;;12.27;;
21334;SDS011;10826;52.536;13.432;2022-12-10T14:23:59;20.53;;;11.87;;
21334;SDS011;10826;52.536;13.432;2022-12-10T14:26:27;20.53;;;11.80;;
21334;SDS011;10826;52.536;13.432;2022-12-10T14:31:49;20.10;;;10.97;;
21334;SDS011;10826;52.536;13.432;2022-12-10T14:34:21;19.27;;;11.60;;
21334;SDS011;10826;52.536;13.432;2022-12-10T14:36:53;24.97;;;11.77;;
21334;SDS011;10826;52.536;13.432;2022-12-10T14:39:27;21.53;;;12.43;;
21334;SDS011;10826;52.536;13.432;2022-12-10T14:41:59;25.73;;;11.77;;
21334;SDS011;10826;52.536;13.432;2022-12-10T14:44:29;22.20;;;11.17;;
21334;SDS011;10826;52.536;13.432;2022-12-10T14:49:43;19.50;;;11.47;;
21334;SDS011;10826;52.536;13.432;2022-12-10T14:54:48;27.07;;;12.83;;
21334;SDS011;10826;52.536;13.432;2022-12-10T14:57:17;25.97;;;12.70;;
21334;SDS011;10826;52.536;13.432;2022-12-10T15:02:42;28.77;;;12.20;;
21334;SDS011;10826;52.536;13.432;2022-12-10T15:05:17;27.50;;;11.50;;
21334;SDS011;10826;52.536;13.432;2022-12-10T15:07:57;23.33;;;11.60;;
21334;SDS011;10826;52.536;13.432;2022-12-10T15:10:37;25.50;;;11.43;;
21334;SDS011;10826;52.536;13.432;2022-12-10T15:13:13;24.70;;;12.07;;
21334;SDS011;10826;52.536;13.432;2022-12-10T15:15:58;27.03;;;12.10;;
21334;SDS011;10826;52.536;13.432;2022-12-10T15:18:31;27.90;;;13.10;;
21334;SDS011;10826;52.536;13.432;2022-12-10T15:21:10;22.80;;;11.87;;
21334;SDS011;10826;52.536;13.432;2022-12-10T15:23:45;26.53;;;12.77;;
21334;SDS011;10826;52.536;13.432;2022-12-10T15:26:19;32.30;;;13.70;;
21334;SDS011;10826;52.536;13.432;2022-12-10T15:29:14;35.70;;;14.17;;
21334;SDS011;10826;52.536;13.432;2022-12-10T15:32:01;29.83;;;12.93;;
21334;SDS011;10826;52.536;13.432;2022-12-10T15:34:39;39.10;;;13.33;;
21334;SDS011;10826;52.536;13.432;2022-12-10T15:37:18;31.03;;;14.93;;
21334;SDS011;10826;52.536;13.432;2022-12-10T15:40:26;33.73;;;15.10;;
21334;SDS011;10826;52.536;13.432;2022-12-10T15:43:12;31.77;;;13.40;;
21334;SDS011;10826;52.536;13.432;2022-12-10T15:45:50;26.83;;;11.83;;
21334;SDS011;10826;52.536;13.432;2022-12-10T15:48:16;34.97;;;12.43;;
21334;SDS011;10826;52.536;13.432;2022-12-10T15:50:43;38.60;;;13.13;;
21334;SDS011;10826;52.536;13.432;2022-12-10T15:53:11;38.47;;;13.13;;
21334;SDS011;10826;52.536;13.432;2022-12-10T15:55:39;35.77;;;14.93;;
21334;SDS011;10826;52.536;13.432;2022-12-10T15:58:14;43.93;;;14.60;;
21334;SDS011;10826;52.536;13.432;2022-12-10T16:00:40;36.43;;;13.80;;
21334;SDS011;10826;52.536;13.432;2022-12-10T16:03:15;40.60;;;15.57;;
21334;SDS011;10826;52.536;13.432;2022-12-10T16:05:43;44.27;;;14.40;;
21334;SDS011;10826;52.536;13.432;2022-12-10T16:10:52;44.57;;;14.13;;
21334;SDS011;10826;52.536;13.432;2022-12-10T16:13:24;33.57;;;13.83;;
21334;SDS011;10826;52.536;13.432;2022-12-10T16:16:04;38.70;;;15.63;;
21334;SDS011;10826;52.536;13.432;2022-12-10T16:18:35;35.30;;;14.33;;
21334;SDS011;10826;52.536;13.432;2022-12-10T16:21:05;41.23;;;13.97;;
21334;SDS011;10826;52.536;13.432;2022-12-10T16:23:33;44.93;;;15.60;;
21334;SDS011;10826;52.536;13.432;2022-12-10T16:26:00;51.57;;;17.47;;
21334;SDS011;10826;52.536;13.432;2022-12-10T16:28:27;44.47;;;14.43;;
21334;SDS011;10826;52.536;13.432;2022-12-10T16:30:54;41.10;;;14.00;;
21334;SDS011;10826;52.536;13.432;2022-12-10T16:33:23;44.43;;;15.27;;